createdAt,value
2018-12-12T00:04:22.811Z,-0.90
2018-12-12T00:06:50.319Z,-1.10
2018-12-12T00:09:17.777Z,-1.10
2018-12-12T00:11:45.247Z,-1.10
2018-12-12T00:14:12.703Z,-1.10
2018-12-12T00:19:07.684Z,-1.00
2018-12-12T00:26:30.026Z,-1.10
2018-12-12T00:28:57.481Z,-1.00
2018-12-12T00:31:24.932Z,-1.00
2018-12-12T00:33:52.372Z,-1.10
2018-12-12T00:36:19.829Z,-1.10
2018-12-12T00:38:47.279Z,-1.30
2018-12-12T00:41:14.759Z,-1.30
2018-12-12T00:43:42.199Z,-1.30
2018-12-12T00:46:09.687Z,-1.20
2018-12-12T00:48:37.140Z,-1.00
2018-12-12T00:53:32.068Z,-0.90
2018-12-12T00:55:59.556Z,-0.90
2018-12-12T01:00:54.494Z,-0.90
2018-12-12T01:03:21.940Z,-1.00
2018-12-12T01:05:49.402Z,-1.20
2018-12-12T01:08:16.875Z,-1.30
2018-12-12T01:15:39.271Z,-1.00
2018-12-12T01:18:06.724Z,-0.80
2018-12-12T01:20:34.184Z,-0.80
2018-12-12T01:23:01.635Z,-0.70
2018-12-12T01:25:29.091Z,-0.60
2018-12-12T01:30:24.027Z,-0.60
2018-12-12T01:32:51.515Z,-0.60
2018-12-12T01:35:18.972Z,-0.60
2018-12-12T01:37:46.464Z,-0.70
2018-12-12T01:40:13.907Z,-0.90
2018-12-12T01:42:41.391Z,-1.00
2018-12-12T01:45:08.875Z,-0.90
2018-12-12T01:50:04.739Z,-0.60
2018-12-12T01:52:32.292Z,-0.50
2018-12-12T01:54:59.770Z,-0.50
2018-12-12T01:59:54.723Z,-0.60
2018-12-12T02:02:22.199Z,-0.60
2018-12-12T02:07:17.239Z,-0.60
2018-12-12T02:09:44.702Z,-0.70
2018-12-12T02:14:39.724Z,-0.80
2018-12-12T02:17:07.181Z,-0.90
2018-12-12T02:24:29.556Z,-0.90
2018-12-12T02:29:24.469Z,-0.80
2018-12-12T02:31:51.921Z,-0.60
2018-12-12T02:34:19.371Z,-0.50
2018-12-12T02:36:46.840Z,-0.40
2018-12-12T02:39:14.388Z,-0.40
2018-12-12T02:41:41.920Z,-0.50
2018-12-12T02:44:09.368Z,-0.50
2018-12-12T02:46:36.825Z,-0.50
2018-12-12T02:51:31.787Z,-0.60
2018-12-12T02:53:59.244Z,-0.60
2018-12-12T02:58:54.176Z,-0.70
2018-12-12T03:01:21.632Z,-0.70
2018-12-12T03:03:49.093Z,-0.60
2018-12-12T03:06:16.678Z,-0.50
2018-12-12T03:11:13.531Z,-0.30
2018-12-12T03:13:40.980Z,-0.20
2018-12-12T03:18:35.936Z,-0.10
2018-12-12T03:21:03.437Z,-0.10
2018-12-12T03:28:25.812Z,-0.10
2018-12-12T03:30:53.277Z,-0.10
2018-12-12T03:33:20.830Z,-0.10
2018-12-12T03:35:48.387Z,-0.30
2018-12-12T03:38:15.845Z,-0.40
2018-12-12T03:40:43.596Z,-0.50
2018-12-12T03:50:33.664Z,-0.50
2018-12-12T03:53:01.129Z,-0.50
2018-12-12T03:57:56.035Z,-0.30
2018-12-12T04:00:23.532Z,-0.30
2018-12-12T04:02:51.031Z,-0.20
2018-12-12T04:05:18.489Z,-0.20
2018-12-12T04:07:46.055Z,-0.20
2018-12-12T04:10:13.553Z,-0.20
2018-12-12T04:12:41.015Z,-0.20
2018-12-12T04:20:05.318Z,0.00
2018-12-12T04:27:27.964Z,0.10
2018-12-12T04:29:55.418Z,0.20
2018-12-12T04:32:22.871Z,0.20
2018-12-12T04:34:50.328Z,0.30
2018-12-12T04:37:17.780Z,0.30
2018-12-12T04:39:45.334Z,0.30
2018-12-12T04:47:07.822Z,0.20
2018-12-12T04:49:35.350Z,0.10
2018-12-12T04:54:30.248Z,0.20
2018-12-12T04:56:57.707Z,0.20
2018-12-12T04:59:25.276Z,0.20
2018-12-12T05:01:52.738Z,0.30
2018-12-12T05:04:20.182Z,0.30
2018-12-12T05:06:47.693Z,0.30
2018-12-12T05:09:15.139Z,0.40
2018-12-12T05:11:42.591Z,0.40
2018-12-12T05:16:37.536Z,0.50
2018-12-12T05:19:05.021Z,0.50
2018-12-12T05:23:59.932Z,0.50
2018-12-12T05:26:27.379Z,0.40
2018-12-12T05:31:22.296Z,0.30
2018-12-12T05:33:49.792Z,0.20
2018-12-12T05:36:17.284Z,0.10
2018-12-12T05:38:44.732Z,0.00
2018-12-12T05:41:12.280Z,0.00
2018-12-12T05:43:39.751Z,0.00
2018-12-12T05:46:07.325Z,-0.10
2018-12-12T05:48:34.816Z,-0.10
2018-12-12T05:51:02.293Z,-0.20
2018-12-12T05:53:29.739Z,-0.20
2018-12-12T05:56:02.404Z,-0.20
2018-12-12T06:00:54.480Z,-0.20
2018-12-12T06:03:22.097Z,-0.20
2018-12-12T06:05:49.551Z,-0.20
2018-12-12T06:08:17.861Z,-0.20
2018-12-12T06:13:12.881Z,-0.10
2018-12-12T06:20:35.367Z,0.10
2018-12-12T06:27:57.896Z,0.20
2018-12-12T06:30:25.457Z,0.20
2018-12-12T06:32:52.968Z,0.20
2018-12-12T06:37:47.864Z,0.40
2018-12-12T06:42:42.784Z,0.40
2018-12-12T06:47:37.982Z,0.40
2018-12-12T06:52:33.495Z,0.40
2018-12-12T06:57:28.404Z,0.30
2018-12-12T07:02:23.391Z,0.10
2018-12-12T07:04:50.928Z,0.10
2018-12-12T07:07:18.620Z,0.00
2018-12-12T07:09:46.073Z,0.00
2018-12-12T07:12:13.709Z,0.10
2018-12-12T07:19:36.108Z,0.30
2018-12-12T07:22:03.636Z,0.40
2018-12-12T07:26:58.556Z,0.40
2018-12-12T07:29:26.015Z,0.40
2018-12-12T07:31:53.526Z,0.50
2018-12-12T07:34:20.969Z,0.50
2018-12-12T07:36:48.412Z,0.50
2018-12-12T07:39:18.050Z,0.50
2018-12-12T07:41:45.365Z,0.60
2018-12-12T07:44:12.845Z,0.50
2018-12-12T07:49:07.895Z,0.40
2018-12-12T07:51:35.503Z,0.30
2018-12-12T07:54:02.995Z,0.30
2018-12-12T07:56:30.472Z,0.40
2018-12-12T07:58:57.935Z,0.40
2018-12-12T08:03:52.917Z,0.50
2018-12-12T08:06:20.363Z,0.60
2018-12-12T08:11:15.300Z,0.70
2018-12-12T08:13:42.833Z,0.80
2018-12-12T08:18:37.800Z,0.90
2018-12-12T08:21:05.296Z,1.00
2018-12-12T08:28:27.941Z,1.00
2018-12-12T08:30:55.428Z,1.10
2018-12-12T08:33:22.961Z,1.10
2018-12-12T08:35:50.437Z,1.10
2018-12-12T08:38:17.891Z,1.10
2018-12-12T08:40:45.436Z,1.10
2018-12-12T08:43:12.932Z,1.10
2018-12-12T08:50:35.307Z,1.10
2018-12-12T08:57:57.880Z,1.10
2018-12-12T09:00:25.320Z,1.10
2018-12-12T09:02:52.847Z,1.10
2018-12-12T09:05:20.359Z,1.00
2018-12-12T09:07:47.886Z,1.00
2018-12-12T09:10:15.357Z,1.00
2018-12-12T09:12:42.839Z,1.00
2018-12-12T09:17:37.733Z,1.00
2018-12-12T09:20:05.257Z,1.10
2018-12-12T09:25:00.251Z,1.10
2018-12-12T09:29:55.161Z,1.20
2018-12-12T09:32:22.610Z,1.20
2018-12-12T09:34:50.065Z,1.10
2018-12-12T09:37:17.546Z,1.20
2018-12-12T09:39:45.003Z,1.20
2018-12-12T09:42:12.481Z,1.20
2018-12-12T09:47:07.425Z,1.10
2018-12-12T09:52:02.382Z,1.00
2018-12-12T09:54:29.921Z,1.00
2018-12-12T09:56:57.383Z,1.00
2018-12-12T10:01:52.436Z,1.00
2018-12-12T10:04:19.897Z,0.90
2018-12-12T10:06:47.336Z,0.90
2018-12-12T10:09:14.797Z,0.90
2018-12-12T10:11:42.253Z,0.90
2018-12-12T10:14:09.704Z,0.90
2018-12-12T10:16:37.282Z,0.90
2018-12-12T10:23:59.657Z,1.10
2018-12-12T10:28:55.621Z,1.10
2018-12-12T10:31:23.088Z,1.20
2018-12-12T10:33:50.547Z,1.30
2018-12-12T10:38:45.428Z,1.40
2018-12-12T10:41:12.980Z,1.50
2018-12-12T10:43:40.446Z,1.60
2018-12-12T10:46:08.000Z,1.70
2018-12-12T10:48:36.672Z,1.80
2018-12-12T10:53:31.577Z,1.80
2018-12-12T10:55:59.091Z,1.80
2018-12-12T11:04:02.065Z,2.00
2018-12-12T11:06:29.527Z,2.00
2018-12-12T11:08:56.972Z,2.10
2018-12-12T11:11:24.459Z,2.10
2018-12-12T11:13:51.907Z,2.10
2018-12-12T11:16:19.351Z,2.10
2018-12-12T11:18:46.847Z,2.00
2018-12-12T11:23:41.766Z,2.00
2018-12-12T11:26:09.245Z,2.00
2018-12-12T11:31:04.141Z,1.90
2018-12-12T11:33:31.581Z,1.90
2018-12-12T11:35:59.023Z,1.80
2018-12-12T11:38:26.535Z,1.80
2018-12-12T11:43:21.716Z,1.70
2018-12-12T11:45:49.187Z,1.70
2018-12-12T11:50:44.102Z,1.70
2018-12-12T11:53:11.551Z,1.70
2018-12-12T11:55:39.013Z,1.70
2018-12-12T12:00:33.992Z,1.80
2018-12-12T12:03:01.453Z,1.80
2018-12-12T12:05:28.908Z,1.90
2018-12-12T12:07:56.360Z,1.90
2018-12-12T12:10:23.845Z,1.90
2018-12-12T12:12:51.289Z,1.90
2018-12-12T12:15:18.735Z,1.80
2018-12-12T12:20:13.653Z,1.80
2018-12-12T12:22:41.108Z,1.80
2018-12-12T12:27:36.048Z,1.70
2018-12-12T12:30:04.664Z,1.70
2018-12-12T12:32:32.122Z,1.60
2018-12-12T12:35:00.237Z,1.60
2018-12-12T12:37:27.890Z,1.60
2018-12-12T12:39:55.327Z,1.50
2018-12-12T12:42:22.781Z,1.50
2018-12-12T12:47:17.678Z,1.50
2018-12-12T12:49:45.143Z,1.50
2018-12-12T12:54:40.052Z,1.50
2018-12-12T12:57:07.492Z,1.60
2018-12-12T13:02:02.496Z,1.60
2018-12-12T13:04:29.964Z,1.60
2018-12-12T13:06:57.412Z,1.60
2018-12-12T13:09:24.869Z,1.70
2018-12-12T13:11:52.363Z,1.70
2018-12-12T13:14:19.876Z,1.80
2018-12-12T13:16:47.317Z,1.80
2018-12-12T13:19:14.764Z,1.80
2018-12-12T13:21:42.245Z,1.80
2018-12-12T13:24:09.688Z,1.80
2018-12-12T13:26:37.173Z,1.90
2018-12-12T13:31:32.064Z,1.90
2018-12-12T13:33:59.507Z,2.00
2018-12-12T13:38:54.436Z,1.90
2018-12-12T13:41:21.889Z,1.80
2018-12-12T13:43:49.332Z,1.80
2018-12-12T13:46:16.771Z,1.80
2018-12-12T13:51:11.716Z,1.70
2018-12-12T13:58:34.082Z,1.70
2018-12-12T14:01:01.614Z,1.70
2018-12-12T14:03:29.077Z,1.70
2018-12-12T14:05:56.550Z,1.80
2018-12-12T14:08:23.992Z,1.80
2018-12-12T14:10:51.463Z,1.80
2018-12-12T14:13:18.931Z,1.80
2018-12-12T14:18:13.841Z,1.90
2018-12-12T14:20:41.332Z,1.90
2018-12-12T14:25:36.222Z,1.90
2018-12-12T14:28:03.693Z,1.90
2018-12-12T14:30:31.187Z,1.90
2018-12-12T14:32:58.663Z,1.90
2018-12-12T14:35:26.163Z,1.90
2018-12-12T14:37:53.608Z,1.80
2018-12-12T14:40:21.079Z,1.90
2018-12-12T14:42:48.556Z,1.90
2018-12-12T14:47:43.463Z,1.90
2018-12-12T14:50:10.932Z,1.90
2018-12-12T14:55:05.879Z,1.70
2018-12-12T14:57:33.348Z,1.70
2018-12-12T15:00:00.803Z,1.60
2018-12-12T15:02:28.253Z,1.60
2018-12-12T15:04:55.725Z,1.60
2018-12-12T15:07:23.168Z,1.60
2018-12-12T15:09:50.607Z,1.50
2018-12-12T15:12:18.064Z,1.50
2018-12-12T15:14:45.499Z,1.50
2018-12-12T15:17:12.954Z,1.40
2018-12-12T15:24:35.559Z,1.40
2018-12-12T15:29:30.657Z,1.40
2018-12-12T15:31:58.137Z,1.30
2018-12-12T15:34:25.588Z,1.30
2018-12-12T15:36:53.033Z,1.30
2018-12-12T15:39:20.483Z,1.20
2018-12-12T15:41:47.936Z,1.20
2018-12-12T15:44:15.431Z,1.20
2018-12-12T15:51:37.872Z,1.20
2018-12-12T15:54:05.341Z,1.20
2018-12-12T15:59:00.243Z,1.10
2018-12-12T16:01:27.832Z,1.10
2018-12-12T16:06:22.800Z,1.10
2018-12-12T16:08:50.276Z,1.10
2018-12-12T16:11:17.803Z,1.10
2018-12-12T16:13:45.255Z,1.10
2018-12-12T16:16:12.790Z,1.10
2018-12-12T16:21:07.710Z,1.10
2018-12-12T16:23:35.152Z,1.10
2018-12-12T16:30:57.509Z,1.10
2018-12-12T16:33:24.953Z,1.10
2018-12-12T16:35:52.432Z,1.10
2018-12-12T16:38:19.880Z,1.10
2018-12-12T16:40:47.324Z,1.10
2018-12-12T16:43:14.772Z,1.10
2018-12-12T16:48:09.700Z,1.10
2018-12-12T16:55:32.071Z,1.10
2018-12-12T16:57:59.521Z,1.10
2018-12-12T17:00:26.990Z,1.10
2018-12-12T17:02:54.439Z,1.10
2018-12-12T17:05:21.879Z,1.10
2018-12-12T17:07:49.336Z,1.10
2018-12-12T17:10:16.772Z,1.10
2018-12-12T17:12:44.224Z,1.10
2018-12-12T17:17:39.150Z,1.20
2018-12-12T17:22:34.513Z,1.20
2018-12-12T17:25:01.988Z,1.30
2018-12-12T17:29:56.965Z,1.30
2018-12-12T17:34:51.839Z,1.30
2018-12-12T17:37:19.281Z,1.20
2018-12-12T17:39:46.775Z,1.20
2018-12-12T17:44:41.681Z,1.10
2018-12-12T17:47:09.120Z,1.10
2018-12-12T17:54:31.479Z,1.00
2018-12-12T17:59:26.388Z,0.90
2018-12-12T18:01:53.888Z,0.90
2018-12-12T18:04:21.337Z,0.90
2018-12-12T18:06:48.820Z,0.90
2018-12-12T18:11:43.752Z,0.90
2018-12-12T18:14:11.275Z,0.90
2018-12-12T18:21:33.640Z,0.90
2018-12-12T18:24:01.085Z,1.00
2018-12-12T18:28:56.013Z,1.00
2018-12-12T18:31:23.447Z,1.00
2018-12-12T18:36:18.417Z,1.00
2018-12-12T18:38:45.974Z,1.00
2018-12-12T18:41:13.434Z,1.00
2018-12-12T18:48:35.862Z,1.10
2018-12-12T18:51:03.343Z,1.10
2018-12-12T18:55:58.307Z,1.10
2018-12-12T18:58:25.909Z,1.10
2018-12-12T19:00:53.472Z,1.10
2018-12-12T19:03:20.925Z,1.10
2018-12-12T19:05:48.381Z,1.10
2018-12-12T19:08:15.860Z,1.10
2018-12-12T19:10:43.326Z,1.10
2018-12-12T19:13:10.763Z,1.10
2018-12-12T19:18:05.688Z,1.10
2018-12-12T19:20:33.144Z,1.10
2018-12-12T19:25:28.108Z,1.10
2018-12-12T19:27:55.587Z,1.10
2018-12-12T19:30:23.064Z,1.20
2018-12-12T19:32:51.182Z,1.20
2018-12-12T19:40:13.709Z,1.10
2018-12-12T19:42:41.172Z,1.10
2018-12-12T19:47:36.101Z,1.10
2018-12-12T19:52:31.524Z,1.10
2018-12-12T19:57:26.422Z,1.10
2018-12-12T19:59:53.869Z,1.10
2018-12-12T20:02:21.365Z,1.10
2018-12-12T20:04:48.809Z,1.10
2018-12-12T20:07:16.272Z,1.10
2018-12-12T20:12:11.208Z,1.10
2018-12-12T20:14:38.656Z,1.10
2018-12-12T20:19:33.632Z,1.00
2018-12-12T20:22:01.063Z,1.00
2018-12-12T20:26:55.984Z,1.00
2018-12-12T20:29:23.432Z,1.00
2018-12-12T20:31:50.967Z,1.00
2018-12-12T20:34:18.411Z,1.00
2018-12-12T20:36:45.851Z,1.00
2018-12-12T20:39:13.299Z,1.00
2018-12-12T20:41:40.734Z,1.00
2018-12-12T20:46:35.637Z,0.90
2018-12-12T20:49:03.080Z,0.90
2018-12-12T20:53:57.992Z,0.90
2018-12-12T20:56:25.455Z,0.90
2018-12-12T21:01:20.348Z,0.90
2018-12-12T21:03:47.887Z,0.80
2018-12-12T21:06:15.357Z,0.80
2018-12-12T21:08:42.785Z,0.80
2018-12-12T21:11:10.268Z,0.80
2018-12-12T21:13:37.738Z,0.80
2018-12-12T21:16:05.241Z,0.80
2018-12-12T21:21:00.198Z,0.80
2018-12-12T21:23:27.632Z,0.80
2018-12-12T21:28:22.542Z,0.70
2018-12-12T21:33:17.477Z,0.70
2018-12-12T21:35:44.935Z,0.70
2018-12-12T21:38:12.371Z,0.70
2018-12-12T21:40:39.828Z,0.70
2018-12-12T21:43:07.335Z,0.70
2018-12-12T21:45:34.775Z,0.60
2018-12-12T21:50:29.710Z,0.60
2018-12-12T21:52:57.161Z,0.60
2018-12-12T21:57:52.073Z,0.50
2018-12-12T22:00:19.532Z,0.50
2018-12-12T22:05:14.485Z,0.50
2018-12-12T22:10:09.449Z,0.50
2018-12-12T22:12:36.905Z,0.40
2018-12-12T22:20:00.004Z,0.40
2018-12-12T22:22:27.462Z,0.40
2018-12-12T22:27:22.436Z,0.40
2018-12-12T22:29:49.891Z,0.40
2018-12-12T22:32:17.327Z,0.40
2018-12-12T22:34:44.806Z,0.40
2018-12-12T22:37:12.236Z,0.40
2018-12-12T22:39:39.680Z,0.40
2018-12-12T22:42:07.142Z,0.50
2018-12-12T22:44:34.608Z,0.50
2018-12-12T22:47:02.047Z,0.50
2018-12-12T22:49:29.495Z,0.60
2018-12-12T22:51:56.947Z,0.60
2018-12-12T22:54:24.388Z,0.70
2018-12-12T22:56:52.517Z,0.70
2018-12-12T22:59:19.963Z,0.60
2018-12-12T23:01:47.530Z,0.70
2018-12-12T23:04:15.016Z,0.70
2018-12-12T23:09:09.989Z,0.60
2018-12-12T23:11:37.501Z,0.60
2018-12-12T23:14:05.019Z,0.60
2018-12-12T23:21:27.430Z,0.60
2018-12-12T23:26:22.442Z,0.50
2018-12-12T23:31:17.857Z,0.40
2018-12-12T23:36:19.159Z,0.40
2018-12-12T23:38:46.685Z,0.40
2018-12-12T23:41:14.155Z,0.40
2018-12-12T23:43:41.596Z,0.40
2018-12-12T23:46:09.055Z,0.40
2018-12-12T23:51:03.954Z,0.40
2018-12-12T23:53:31.397Z,0.30
2018-12-12T23:58:26.340Z,0.30
